Time;durP1;ratioP1;P1;durP2;ratioP2;P2;SDS_P1;SDS_P2;PMS_P1;PMS_P2;Temp;Humidity;BMP_temperature;BMP_pressure;BME280_temperature;BME280_humidity;BME280_pressure;Samples;Min_cycle;Max_cycle;Signal;HPM_P1;HPM_P2
2022/06/10 00:01:50;;;;;;;10.65;5.30;;;;;;;14.62;80.52;100402.84;6236590;23;20490;-84
2022/06/10 00:04:16;;;;;;;11.98;5.13;;;;;;;14.68;80.46;100402.56;6236340;23;20063;-83
2022/06/10 00:06:41;;;;;;;10.57;5.72;;;;;;;14.70;80.29;100405.03;6236453;23;20310;-81
2022/06/10 00:09:06;;;;;;;14.90;5.13;;;;;;;14.69;80.66;100400.63;6236558;23;20454;-84
2022/06/10 00:11:32;;;;;;;8.77;4.77;;;;;;;14.65;80.15;100402.28;6236123;23;20086;-85
2022/06/10 00:13:57;;;;;;;10.37;6.07;;;;;;;14.61;80.34;100403.94;6236294;23;20232;-86
2022/06/10 00:16:22;;;;;;;9.10;5.03;;;;;;;14.70;80.26;100407.78;6235530;23;20257;-81
2022/06/10 00:18:51;;;;;;;13.82;6.57;;;;;;;14.68;79.22;100402.56;6236184;23;20232;-84
2022/06/10 00:21:19;;;;;;;15.55;5.97;;;;;;;14.54;79.73;100402.28;6236077;23;20146;-83
2022/06/10 00:23:44;;;;;;;16.00;5.63;;;;;;;14.44;80.45;100402.31;6236430;23;20118;-84
2022/06/10 00:26:12;;;;;;;14.27;5.57;;;;;;;14.39;80.26;100405.88;6234946;23;20087;-84
2022/06/10 00:28:37;;;;;;;8.70;4.57;;;;;;;14.52;80.12;100399.00;6236012;23;20230;-84
2022/06/10 00:31:03;;;;;;;13.23;5.50;;;;;;;14.56;79.30;100399.28;6236824;23;20015;-83
2022/06/10 00:33:29;;;;;;;16.20;5.63;;;;;;;14.59;79.03;100393.25;6236144;23;20289;-85
2022/06/10 00:35:55;;;;;;;10.48;5.53;;;;;;;14.69;78.28;100392.41;6236126;23;20004;-84
2022/06/10 00:38:20;;;;;;;12.63;6.53;;;;;;;14.79;77.79;100391.56;6236580;23;20128;-83
2022/06/10 00:40:54;;;;;;;10.55;5.53;;;;;;;14.82;78.45;100391.00;6209025;23;20008;-87
2022/06/10 00:43:22;;;;;;;10.75;5.00;;;;;;;14.79;77.79;100392.38;6236604;23;20083;-83
2022/06/10 00:45:59;;;;;;;10.02;4.75;;;;;;;14.71;77.60;100392.94;6235916;23;20004;-86
2022/06/10 00:48:30;;;;;;;8.55;4.25;;;;;;;14.82;76.75;100389.09;6209805;23;20028;-82
2022/06/10 00:50:57;;;;;;;10.52;4.88;;;;;;;14.90;76.34;100387.72;6237151;23;20115;-82
2022/06/10 00:53:30;;;;;;;13.43;6.05;;;;;;;14.93;76.88;100386.31;6236345;23;19996;-84
2022/06/10 00:55:56;;;;;;;14.70;4.95;;;;;;;14.91;76.17;100385.78;6236070;23;20007;-85
2022/06/10 00:58:37;;;;;;;12.23;6.10;;;;;;;14.74;76.85;100380.59;6236482;23;19996;-83
2022/06/10 01:01:03;;;;;;;10.93;5.55;;;;;;;14.80;76.46;100383.06;6236742;23;20014;-84
2022/06/10 01:03:29;;;;;;;10.15;5.30;;;;;;;14.75;76.74;100383.06;6236351;23;20310;-83
2022/06/10 01:05:54;;;;;;;13.23;5.78;;;;;;;14.78;77.31;100388.00;6235633;23;20104;-83
2022/06/10 01:08:21;;;;;;;22.60;7.97;;;;;;;14.74;77.62;100392.41;6236010;23;20477;-85
2022/06/10 01:11:10;;;;;;;8.30;4.75;;;;;;;14.64;77.67;100387.75;6235715;23;20213;-85
2022/06/10 01:13:50;;;;;;;12.43;6.00;;;;;;;14.68;77.76;100379.78;6236283;23;20091;-84
2022/06/10 01:16:30;;;;;;;10.23;5.22;;;;;;;14.49;77.11;100388.59;6235465;23;20012;-85
2022/06/10 01:19:14;;;;;;;12.75;5.85;;;;;;;14.56;77.81;100389.13;6235807;23;20008;-83
2022/06/10 01:21:58;;;;;;;10.75;5.82;;;;;;;14.61;76.83;100384.72;6236144;23;20019;-83
2022/06/10 01:24:37;;;;;;;11.82;4.72;;;;;;;14.61;76.62;100381.97;6209042;23;20543;-82
2022/06/10 01:27:48;;;;;;;12.32;5.85;;;;;;;14.66;75.99;100376.50;6235178;23;20008;-84
2022/06/10 01:30:45;;;;;;;11.55;5.18;;;;;;;14.57;76.01;100371.56;6235794;23;20012;-83
2022/06/10 01:33:43;;;;;;;9.85;4.93;;;;;;;14.49;76.77;100380.38;6203725;23;20399;-86
2022/06/10 01:36:09;;;;;;;11.85;5.72;;;;;;;14.43;77.15;100378.72;6235349;23;20015;-82
2022/06/10 01:38:46;;;;;;;12.57;6.90;;;;;;;14.39;76.74;100374.88;6208760;23;20414;-81
2022/06/10 01:41:27;;;;;;;10.38;5.22;;;;;;;14.42;77.48;100377.09;6235238;23;20408;-84
2022/06/10 01:43:56;;;;;;;10.75;5.05;;;;;;;14.41;77.60;100376.25;6236024;23;20078;-82
2022/06/10 01:46:37;;;;;;;9.93;5.50;;;;;;;14.30;78.55;100380.13;6235394;23;20008;-82
2022/06/10 01:49:24;;;;;;;8.20;5.03;;;;;;;14.04;79.36;100375.44;6235922;23;20115;-82
2022/06/10 01:52:00;;;;;;;11.30;5.40;;;;;;;14.22;78.54;100373.25;6236180;23;20012;-82
2022/06/10 01:54:48;;;;;;;13.85;6.07;;;;;;;14.17;77.30;100374.09;6236090;23;20008;-81
2022/06/10 01:57:24;;;;;;;14.77;6.53;;;;;;;14.10;77.73;100371.59;6235151;23;20083;-83
2022/06/10 01:59:59;;;;;;;10.40;5.63;;;;;;;14.13;77.57;100367.50;6236164;23;20050;-83
2022/06/10 02:02:31;;;;;;;13.52;6.65;;;;;;;14.23;76.64;100377.63;6236394;23;20422;-85
2022/06/10 02:05:09;;;;;;;8.57;4.93;;;;;;;14.23;76.78;100380.38;6235419;23;20461;-84
2022/06/10 02:07:39;;;;;;;10.68;5.63;;;;;;;14.24;76.60;100377.34;6236178;23;19996;-83
2022/06/10 02:10:18;;;;;;;10.55;5.93;;;;;;;14.35;76.99;100383.69;6236026;23;20000;-82
2022/06/10 02:12:53;;;;;;;8.20;4.95;;;;;;;14.30;77.21;100374.63;6208996;23;20004;-83
2022/06/10 02:15:51;;;;;;;9.38;5.15;;;;;;;14.19;77.71;100387.50;6235093;23;20058;-84
2022/06/10 02:18:24;;;;;;;12.13;5.75;;;;;;;14.23;76.77;100383.13;6235949;23;20008;-85
2022/06/10 02:21:00;;;;;;;9.93;5.53;;;;;;;14.35;76.36;100388.34;6236015;23;20077;-84
2022/06/10 02:23:31;;;;;;;20.33;7.57;;;;;;;14.20;76.81;100389.97;6235321;23;20226;-83
2022/06/10 02:25:59;;;;;;;10.98;6.03;;;;;;;14.11;76.55;100388.88;6234670;23;20323;-82
2022/06/10 02:28:43;;;;;;;12.35;6.65;;;;;;;14.19;77.18;100391.09;6235506;23;20008;-82
2022/06/10 02:31:23;;;;;;;13.93;6.28;;;;;;;14.19;76.59;100390.25;6208872;23;20111;-84
2022/06/10 02:33:49;;;;;;;14.70;7.70;;;;;;;14.00;77.23;100393.53;6235810;23;20012;-81
2022/06/10 02:36:29;;;;;;;11.07;6.75;;;;;;;13.97;77.36;100392.16;6234896;23;20508;-81
2022/06/10 02:39:02;;;;;;;16.83;6.80;;;;;;;14.15;76.83;100391.91;6236051;23;20043;-83
2022/06/10 02:41:36;;;;;;;12.43;7.53;;;;;;;14.18;76.70;100396.81;6235224;23;20442;-85
2022/06/10 02:44:24;;;;;;;12.85;8.23;;;;;;;14.01;77.62;100397.94;6236288;23;20418;-83
2022/06/10 02:47:21;;;;;;;13.18;7.60;;;;;;;13.98;77.70;100398.47;6236375;23;20015;-83
2022/06/10 02:49:47;;;;;;;13.65;7.78;;;;;;;14.03;77.82;100409.44;6229890;23;20074;-82
2022/06/10 02:52:14;;;;;;;14.30;6.82;;;;;;;14.03;77.55;100401.22;6237667;23;20301;-83
2022/06/10 02:54:41;;;;;;;15.43;8.80;;;;;;;14.03;77.39;100398.47;6237080;23;20210;-82
2022/06/10 02:57:16;;;;;;;14.23;7.85;;;;;;;14.00;77.72;100407.22;6237311;23;20022;-84
2022/06/10 03:02:52;;;;;;;15.23;8.73;;;;;;;13.99;78.32;100419.31;6237326;23;20014;-84
2022/06/10 03:05:26;;;;;;;18.80;8.63;;;;;;;14.10;77.13;100415.47;6236761;23;20024;-86
2022/06/10 03:08:20;;;;;;;13.65;9.30;;;;;;;14.08;77.41;100417.66;6237587;23;20034;-82
2022/06/10 03:11:18;;;;;;;14.52;7.57;;;;;;;13.98;78.01;100425.88;6237375;23;20073;-83
2022/06/10 03:14:08;;;;;;;24.67;10.60;;;;;;;13.87;77.94;100425.84;6210363;23;20015;-81
2022/06/10 03:16:53;;;;;;;15.02;8.75;;;;;;;13.89;78.23;100426.41;6237133;23;20000;-84
2022/06/10 03:19:33;;;;;;;14.98;8.32;;;;;;;13.92;77.95;100430.53;6237145;23;20083;-84
2022/06/10 03:22:21;;;;;;;15.70;8.77;;;;;;;13.98;77.26;100429.44;6236853;23;20015;-82
2022/06/10 03:24:58;;;;;;;13.38;8.70;;;;;;;14.02;77.31;100432.47;6237561;23;20190;-84
2022/06/10 03:27:55;;;;;;;14.23;9.45;;;;;;;13.91;77.94;100428.88;6237666;23;20065;-81
2022/06/10 03:30:27;;;;;;;14.57;9.15;;;;;;;13.90;77.99;100427.22;6235771;23;20012;-84
2022/06/10 03:33:16;;;;;;;15.63;8.70;;;;;;;13.87;77.99;100433.25;6237549;23;20000;-84
2022/06/10 03:35:51;;;;;;;13.82;7.55;;;;;;;13.91;77.96;100428.06;6236252;23;20239;-83
2022/06/10 03:38:17;;;;;;;20.60;9.00;;;;;;;13.85;77.62;100428.03;6237045;23;20008;-83
2022/06/10 03:40:44;;;;;;;14.68;8.13;;;;;;;13.80;77.97;100433.50;6236407;23;20299;-82
2022/06/10 03:43:13;;;;;;;15.88;8.43;;;;;;;13.81;78.04;100435.16;6236492;23;20031;-83
2022/06/10 03:45:45;;;;;;;13.18;7.43;;;;;;;13.90;77.68;100427.22;6208958;23;20031;-84
2022/06/10 03:48:15;;;;;;;15.65;9.18;;;;;;;13.85;77.88;100436.25;6236317;23;20488;-83
2022/06/10 03:50:41;;;;;;;13.63;8.38;;;;;;;13.87;77.76;100433.25;6209496;23;20019;-83
2022/06/10 03:53:12;;;;;;;13.90;7.50;;;;;;;13.85;78.01;100440.94;6236274;23;20343;-84
2022/06/10 03:55:38;;;;;;;13.27;7.68;;;;;;;13.86;77.90;100443.41;6235291;23;20004;-82
2022/06/10 03:58:03;;;;;;;10.77;6.57;;;;;;;13.85;77.93;100439.00;6236139;23;20008;-82
2022/06/10 04:00:29;;;;;;;12.65;6.90;;;;;;;13.84;78.42;100445.59;6235946;23;20225;-83
2022/06/10 04:02:54;;;;;;;14.55;7.60;;;;;;;13.79;78.11;100437.34;6237067;23;20013;-83
2022/06/10 04:05:20;;;;;;;18.05;8.18;;;;;;;13.86;77.82;100446.13;6236036;23;20009;-84
2022/06/10 04:07:45;;;;;;;11.32;6.55;;;;;;;13.89;77.86;100453.81;6236463;23;20007;-84
2022/06/10 04:10:14;;;;;;;14.05;6.88;;;;;;;13.91;77.52;100456.31;6236851;23;20004;-83
2022/06/10 04:12:40;;;;;;;12.20;7.18;;;;;;;13.89;77.55;100453.81;6236930;23;20004;-84
2022/06/10 04:15:06;;;;;;;11.95;6.55;;;;;;;13.95;77.37;100456.56;6236253;23;20012;-84
2022/06/10 04:17:32;;;;;;;13.10;6.68;;;;;;;13.93;77.73;100456.03;6209618;23;20012;-82
2022/06/10 04:19:59;;;;;;;13.02;6.00;;;;;;;13.98;77.35;100458.75;6236762;23;20334;-82
2022/06/10 04:22:25;;;;;;;12.45;6.40;;;;;;;14.06;77.87;100458.22;6236782;23;20222;-81
2022/06/10 04:24:50;;;;;;;16.75;7.22;;;;;;;14.06;77.89;100462.88;6236872;23;20580;-89
2022/06/10 04:27:16;;;;;;;17.40;8.15;;;;;;;14.03;77.54;100464.28;6235213;23;20085;-83
2022/06/10 04:29:41;;;;;;;13.98;6.45;;;;;;;14.07;77.38;100468.13;6236183;23;20477;-83
2022/06/10 04:32:07;;;;;;;15.10;7.30;;;;;;;14.10;77.16;100467.56;6236155;23;20011;-84
2022/06/10 04:34:33;;;;;;;12.15;6.80;;;;;;;14.01;77.59;100467.25;6236132;23;20297;-84
2022/06/10 04:36:58;;;;;;;13.13;6.80;;;;;;;14.06;77.18;100469.19;6236133;23;20008;-85
2022/06/10 04:39:23;;;;;;;15.02;6.70;;;;;;;14.05;76.93;100472.22;6236455;23;20007;-81
2022/06/10 04:41:49;;;;;;;9.45;5.63;;;;;;;14.09;77.07;100474.16;6236406;23;20397;-84
2022/06/10 04:44:14;;;;;;;12.15;7.13;;;;;;;14.10;77.01;100480.44;6236358;23;20439;-82
2022/06/10 04:46:42;;;;;;;15.07;7.17;;;;;;;14.09;77.49;100474.16;6235671;23;20027;-82
2022/06/10 04:49:08;;;;;;;13.10;6.82;;;;;;;14.08;77.23;100472.50;6236128;23;20338;-83
2022/06/10 04:51:35;;;;;;;13.57;6.90;;;;;;;14.12;77.24;100470.84;6236037;23;20016;-83
2022/06/10 04:54:01;;;;;;;12.10;5.70;;;;;;;14.17;76.64;100475.53;6236124;23;20008;-85
2022/06/10 04:56:26;;;;;;;10.57;6.45;;;;;;;14.23;76.79;100477.19;6235083;23;20027;-84
2022/06/10 04:58:51;;;;;;;14.93;6.53;;;;;;;14.21;76.93;100473.06;6209297;23;20015;-82
2022/06/10 05:01:17;;;;;;;13.20;7.15;;;;;;;14.14;77.63;100480.75;6235950;23;20181;-84
2022/06/10 05:03:42;;;;;;;17.33;5.93;;;;;;;14.26;77.50;100478.53;6235788;23;20024;-84
2022/06/10 05:06:08;;;;;;;12.93;5.97;;;;;;;14.25;77.14;100479.66;6236161;23;20028;-82
2022/06/10 05:08:33;;;;;;;9.48;5.72;;;;;;;14.29;77.01;100491.72;6236042;23;20238;-81
2022/06/10 05:10:59;;;;;;;14.82;6.45;;;;;;;14.36;77.00;100481.31;6235755;23;20307;-84
2022/06/10 05:13:24;;;;;;;11.23;6.20;;;;;;;14.38;77.01;100488.44;6236193;23;20008;-82
2022/06/10 05:15:49;;;;;;;16.98;5.95;;;;;;;14.40;76.45;100486.25;6235823;23;20008;-83
2022/06/10 05:18:17;;;;;;;10.90;5.03;;;;;;;14.54;76.23;100483.78;6235883;23;20012;-83
2022/06/10 05:20:44;;;;;;;12.38;5.45;;;;;;;14.53;76.51;100477.47;6236058;23;20008;-83
2022/06/10 05:23:13;;;;;;;10.00;4.25;;;;;;;14.55;76.16;100475.28;6236417;23;20004;-83
2022/06/10 05:25:39;;;;;;;13.70;5.70;;;;;;;14.59;76.12;100479.13;6235650;23;20024;-84
2022/06/10 05:28:05;;;;;;;9.60;5.20;;;;;;;14.59;75.83;100481.03;6236024;23;20023;-82
2022/06/10 05:30:33;;;;;;;13.07;4.65;;;;;;;14.66;76.12;100487.09;6236141;23;20015;-83
2022/06/10 05:32:59;;;;;;;13.30;4.07;;;;;;;14.63;76.19;100475.81;6236091;23;20004;-86
2022/06/10 05:35:26;;;;;;;12.18;5.28;;;;;;;14.72;76.18;100479.69;6235985;23;20099;-84
2022/06/10 05:37:51;;;;;;;13.73;5.20;;;;;;;14.80;75.76;100479.13;6236162;23;20012;-85
2022/06/10 05:40:17;;;;;;;12.45;5.88;;;;;;;14.81;75.45;100483.50;6235887;23;20040;-83
2022/06/10 05:42:43;;;;;;;11.25;4.85;;;;;;;14.93;75.24;100479.66;6235754;23;20000;-83
2022/06/10 05:45:10;;;;;;;12.20;5.32;;;;;;;14.99;74.88;100489.53;6208457;23;20008;-82
2022/06/10 05:47:36;;;;;;;8.18;4.13;;;;;;;15.06;75.00;100483.78;6235779;23;20140;-82
2022/06/10 05:50:05;;;;;;;9.20;4.57;;;;;;;15.14;74.43;100485.97;6235905;23;20008;-84
2022/06/10 05:52:31;;;;;;;13.02;5.32;;;;;;;15.22;74.47;100487.31;6235649;23;20390;-84
2022/06/10 05:55:00;;;;;;;13.05;4.95;;;;;;;15.35;74.23;100488.66;6236381;23;20008;-82
2022/06/10 05:57:27;;;;;;;11.32;5.32;;;;;;;15.47;73.98;100485.59;6235967;23;20012;-84
2022/06/10 05:59:53;;;;;;;9.38;4.45;;;;;;;15.56;73.71;100485.81;6236084;23;20287;-81
2022/06/10 06:02:21;;;;;;;20.05;6.93;;;;;;;15.58;73.36;100491.06;6235976;23;20177;-83
2022/06/10 06:04:47;;;;;;;8.65;3.97;;;;;;;15.62;72.99;100486.66;6235899;23;20022;-83
2022/06/10 06:07:18;;;;;;;10.52;5.53;;;;;;;15.72;72.54;100494.03;6236116;23;20334;-83
2022/06/10 06:09:43;;;;;;;12.02;4.20;;;;;;;15.63;72.63;100489.09;6236295;23;20005;-83
2022/06/10 06:12:09;;;;;;;10.38;5.35;;;;;;;15.79;72.47;100493.69;6235550;23;20342;-85
2022/06/10 06:14:34;;;;;;;12.63;4.38;;;;;;;15.87;72.18;100495.84;6235781;23;20004;-84
2022/06/10 06:17:02;;;;;;;16.80;4.72;;;;;;;15.97;71.58;100494.97;6235807;23;20012;-83
2022/06/10 06:19:29;;;;;;;13.48;4.80;;;;;;;16.14;71.57;100497.41;6237717;23;20008;-84
2022/06/10 06:21:54;;;;;;;12.32;3.50;;;;;;;16.22;71.49;100502.28;6238132;23;20012;-84
2022/06/10 06:24:20;;;;;;;11.35;3.90;;;;;;;16.30;71.34;100505.53;6237957;23;20012;-83
2022/06/10 06:26:46;;;;;;;11.93;5.93;;;;;;;16.23;71.45;100508.63;6237633;23;20036;-83
2022/06/10 06:29:12;;;;;;;8.63;3.45;;;;;;;16.34;71.17;100509.38;6238068;23;20034;-82
2022/06/10 06:31:38;;;;;;;10.13;3.95;;;;;;;16.47;70.81;100502.41;6238052;23;20128;-84
2022/06/10 06:34:04;;;;;;;6.95;3.13;;;;;;;16.45;70.60;100508.16;6238361;23;20035;-83
2022/06/10 06:36:36;;;;;;;13.65;5.35;;;;;;;16.53;70.80;100519.69;6210857;23;20308;-82
2022/06/10 06:39:02;;;;;;;7.85;3.10;;;;;;;16.62;70.34;100512.47;6238278;23;20004;-84
2022/06/10 06:41:28;;;;;;;11.02;3.53;;;;;;;16.66;69.03;100509.94;6238223;23;20229;-82
2022/06/10 06:43:53;;;;;;;7.88;2.90;;;;;;;16.61;69.21;100516.34;6238086;23;20012;-83
2022/06/10 06:46:20;;;;;;;10.07;4.23;;;;;;;16.69;68.94;100521.22;6210491;23;20015;-83
2022/06/10 06:48:46;;;;;;;14.77;3.13;;;;;;;16.72;68.16;100521.75;6237662;23;20249;-82
2022/06/10 06:51:11;;;;;;;9.02;2.70;;;;;;;16.49;68.70;100521.38;6237173;23;20008;-84
2022/06/10 06:53:37;;;;;;;11.15;3.47;;;;;;;16.61;68.50;100523.75;6237631;23;20012;-83
2022/06/10 06:56:04;;;;;;;8.07;2.28;;;;;;;16.67;67.60;100533.63;6236591;23;20039;-86
2022/06/10 06:58:31;;;;;;;17.25;3.20;;;;;;;16.67;67.88;100526.19;6237604;23;20012;-82
2022/06/10 07:00:56;;;;;;;22.77;3.75;;;;;;;16.71;67.42;100529.19;6237132;23;20012;-84
2022/06/10 07:03:22;;;;;;;7.82;2.83;;;;;;;16.61;67.90;100530.09;6236551;23;20027;-83
2022/06/10 07:05:49;;;;;;;8.60;2.72;;;;;;;16.73;67.39;100531.66;6237573;23;20438;-85
2022/06/10 07:08:14;;;;;;;9.07;3.05;;;;;;;16.60;66.79;100536.69;6237219;23;20031;-84
2022/06/10 07:10:40;;;;;;;11.30;2.30;;;;;;;16.61;67.13;100529.25;6237199;23;20039;-85
2022/06/10 07:13:06;;;;;;;9.45;3.40;;;;;;;16.69;66.94;100529.47;6235689;23;20428;-85
2022/06/10 07:15:31;;;;;;;6.13;2.40;;;;;;;16.77;66.35;100533.53;6236732;23;20012;-86
2022/06/10 07:17:57;;;;;;;18.25;2.92;;;;;;;16.80;66.43;100541.22;6237268;23;20362;-83
2022/06/10 07:20:26;;;;;;;17.10;3.40;;;;;;;16.80;66.63;100543.16;6237392;23;20015;-85
2022/06/10 07:22:52;;;;;;;8.18;2.15;;;;;;;16.98;65.97;100541.63;6237119;23;20079;-85
2022/06/10 07:25:18;;;;;;;11.63;3.42;;;;;;;16.86;66.16;100536.47;6235843;23;20020;-83
2022/06/10 07:27:44;;;;;;;7.40;3.00;;;;;;;16.73;66.15;100543.50;6210182;23;20018;-82
2022/06/10 07:30:14;;;;;;;6.30;2.00;;;;;;;16.90;65.99;100548.56;6237270;23;20042;-82
2022/06/10 07:32:40;;;;;;;9.07;2.00;;;;;;;16.88;65.51;100547.22;6237365;23;20001;-84
2022/06/10 07:35:06;;;;;;;9.77;2.42;;;;;;;17.03;65.58;100549.00;6237172;23;20350;-82
2022/06/10 07:37:31;;;;;;;9.88;2.47;;;;;;;16.88;65.14;100550.78;6237579;23;20011;-84
2022/06/10 07:39:57;;;;;;;7.87;2.90;;;;;;;16.89;65.00;100552.44;6237320;23;20241;-82
2022/06/10 07:42:22;;;;;;;6.18;2.40;;;;;;;16.97;64.71;100547.41;6236465;23;20235;-81
2022/06/10 07:44:48;;;;;;;8.30;1.90;;;;;;;16.92;65.19;100551.84;6236678;23;20346;-84
2022/06/10 07:47:14;;;;;;;9.43;2.72;;;;;;;17.03;64.80;100551.75;6236656;23;20014;-84
2022/06/10 07:49:40;;;;;;;9.68;2.42;;;;;;;17.08;64.88;100546.22;6237026;23;20004;-82
2022/06/10 07:52:06;;;;;;;9.00;2.17;;;;;;;17.23;64.50;100552.72;6237291;23;20026;-83
2022/06/10 07:54:34;;;;;;;4.00;1.45;;;;;;;17.27;64.38;100551.00;6236480;23;20008;-90
2022/06/10 07:57:00;;;;;;;8.93;3.15;;;;;;;17.29;64.64;100553.50;6236880;23;20085;-83
2022/06/10 07:59:26;;;;;;;12.27;4.03;;;;;;;17.27;64.51;100551.00;6236759;23;20034;-83
2022/06/10 08:01:51;;;;;;;8.65;1.70;;;;;;;17.21;64.19;100550.25;6209384;23;20039;-85
2022/06/10 08:04:16;;;;;;;7.72;1.85;;;;;;;17.13;64.35;100550.88;6236981;23;20054;-85
2022/06/10 08:06:46;;;;;;;4.80;2.40;;;;;;;17.26;63.97;100560.41;6235133;23;20445;-83
2022/06/10 08:09:12;;;;;;;11.40;2.40;;;;;;;17.26;64.11;100558.47;6236795;23;20276;-84
2022/06/10 08:11:38;;;;;;;6.72;2.10;;;;;;;17.36;63.64;100560.31;6236635;23;20273;-83
2022/06/10 08:14:05;;;;;;;5.88;1.70;;;;;;;17.38;63.32;100549.81;6236656;23;20036;-84
2022/06/10 08:16:31;;;;;;;8.68;2.30;;;;;;;17.28;63.83;100558.19;6236086;23;20004;-87
2022/06/10 08:18:57;;;;;;;6.53;2.03;;;;;;;17.19;63.70;100554.44;6237299;23;20011;-81
2022/06/10 08:24:06;;;;;;;5.07;1.70;;;;;;;17.26;63.86;100560.41;6237109;23;20019;-85
2022/06/10 08:26:32;;;;;;;13.95;2.72;;;;;;;17.19;64.48;100560.75;6208107;23;20012;-82
2022/06/10 08:29:00;;;;;;;8.05;2.00;;;;;;;17.33;63.74;100565.59;6236801;23;20008;-83
2022/06/10 08:31:26;;;;;;;8.57;2.03;;;;;;;17.48;63.85;100561.84;6236526;23;20095;-85
2022/06/10 08:33:52;;;;;;;5.70;1.92;;;;;;;17.58;63.41;100556.22;6236617;23;20090;-83
2022/06/10 08:36:17;;;;;;;7.00;1.65;;;;;;;17.75;63.90;100560.44;6236252;23;20015;-87
2022/06/10 08:38:43;;;;;;;7.07;2.05;;;;;;;17.57;63.58;100562.84;6236224;23;20012;-83
2022/06/10 08:41:23;;;;;;;7.33;1.90;;;;;;;17.66;64.06;100564.94;6236084;23;20083;-82
2022/06/10 08:44:05;;;;;;;6.70;1.35;;;;;;;17.71;64.09;100553.88;6236443;23;20799;-84
2022/06/10 08:47:12;;;;;;;8.27;2.72;;;;;;;17.72;64.52;100555.50;6236105;23;20406;-85
2022/06/10 08:50:13;;;;;;;12.88;1.45;;;;;;;17.70;64.17;100554.97;6192504;23;20015;-84
2022/06/10 08:53:18;;;;;;;7.03;1.27;;;;;;;17.74;64.39;100553.25;6153353;23;20021;-87
2022/06/10 08:56:06;;;;;;;10.43;1.30;;;;;;;17.78;64.85;100553.50;6235296;23;20301;-82
2022/06/10 08:58:37;;;;;;;7.78;1.58;;;;;;;17.80;64.15;100557.59;6235933;23;20342;-83
2022/06/10 09:01:12;;;;;;;4.22;1.75;;;;;;;17.93;64.52;100555.25;6236325;23;20008;-82
2022/06/10 09:03:42;;;;;;;7.32;2.40;;;;;;;17.85;64.20;100549.28;6235173;23;20549;-84
2022/06/10 09:06:22;;;;;;;5.63;1.65;;;;;;;18.16;64.25;100552.75;6235422;23;20008;-86
2022/06/10 09:08:51;;;;;;;3.90;1.48;;;;;;;18.60;62.69;100555.44;6236202;23;20475;-84
2022/06/10 09:11:37;;;;;;;5.00;1.30;;;;;;;18.92;61.98;100545.53;6235759;23;20015;-84
2022/06/10 09:14:13;;;;;;;9.70;2.17;;;;;;;19.00;61.95;100555.91;6236159;23;20381;-82
2022/06/10 09:16:47;;;;;;;7.05;1.88;;;;;;;18.90;60.98;100553.31;6235394;23;20016;-84
2022/06/10 09:19:36;;;;;;;6.97;2.10;;;;;;;18.75;61.72;100551.63;6236440;23;20004;-87
2022/06/10 09:22:30;;;;;;;4.28;2.13;;;;;;;18.64;61.73;100550.97;6235869;23;20020;-84
2022/06/10 09:25:22;;;;;;;16.73;4.07;;;;;;;18.82;61.53;100559.50;6235833;23;20005;-86
2022/06/10 09:27:51;;;;;;;7.57;2.10;;;;;;;18.72;61.62;100555.81;6209246;23;20627;-87
2022/06/10 09:30:21;;;;;;;4.97;1.90;;;;;;;18.81;61.80;100555.94;6235926;23;20008;-84
2022/06/10 09:33:03;;;;;;;6.57;2.58;;;;;;;19.11;60.82;100556.53;6236206;23;20154;-85
2022/06/10 09:35:41;;;;;;;8.38;2.20;;;;;;;19.19;60.83;100549.53;6235234;23;20126;-85
2022/06/10 09:38:13;;;;;;;7.15;3.63;;;;;;;19.51;60.74;100546.16;6235529;23;20526;-81
2022/06/10 09:40:51;;;;;;;5.43;2.17;;;;;;;19.80;59.81;100545.88;6235381;23;20028;-85
2022/06/10 09:43:43;;;;;;;4.82;1.80;;;;;;;19.93;59.45;100558.03;6235991;23;20094;-82
2022/06/10 09:46:20;;;;;;;5.13;1.52;;;;;;;19.96;59.02;100548.28;6207703;23;20004;-84
2022/06/10 09:49:16;;;;;;;6.82;2.25;;;;;;;19.68;59.56;100549.16;6235843;23;20517;-82
2022/06/10 09:52:12;;;;;;;8.50;1.60;;;;;;;19.62;59.77;100547.63;6235441;23;20000;-84
2022/06/10 09:54:45;;;;;;;4.75;2.05;;;;;;;19.48;60.27;100551.19;6185579;23;20038;-85
2022/06/10 09:57:45;;;;;;;5.55;2.33;;;;;;;19.37;60.31;100552.50;6236799;23;20004;-84
2022/06/10 10:00:18;;;;;;;8.05;2.15;;;;;;;19.50;60.23;100552.81;6143511;23;20006;-85
2022/06/10 10:03:13;;;;;;;4.72;2.33;;;;;;;19.60;60.17;100547.09;6222564;23;20504;-86
2022/06/10 10:05:41;;;;;;;4.63;2.53;;;;;;;19.45;60.41;100539.91;6236752;23;20024;-83
2022/06/10 10:08:25;;;;;;;9.13;2.10;;;;;;;19.44;60.25;100541.88;6237652;23;20008;-86
2022/06/10 10:11:13;;;;;;;7.55;2.10;;;;;;;19.28;61.45;100548.81;6237862;23;20015;-87
2022/06/10 10:13:58;;;;;;;12.15;2.70;;;;;;;19.23;61.58;100545.03;6240421;23;20008;-86
2022/06/10 10:16:41;;;;;;;5.47;2.25;;;;;;;19.35;61.37;100552.81;6236911;23;20015;-85
2022/06/10 10:19:25;;;;;;;;;;;;;;;19.53;60.83;100547.50;6237596;23;20251;-84
2022/06/10 10:22:15;;;;;;;9.85;3.55;;;;;;;19.42;60.64;100540.53;6237108;23;20321;-87
2022/06/10 10:24:43;;;;;;;10.43;3.22;;;;;;;19.54;60.43;100534.50;6237344;23;20457;-83
2022/06/10 10:27:15;;;;;;;11.35;2.30;;;;;;;19.54;60.80;100551.09;6236454;23;20446;-84
2022/06/10 10:29:45;;;;;;;15.15;3.80;;;;;;;19.59;60.43;100546.28;6237243;23;20035;-86
2022/06/10 10:32:17;;;;;;;11.77;3.35;;;;;;;19.52;60.58;100547.81;6237380;23;20008;-83
2022/06/10 10:34:47;;;;;;;15.25;2.58;;;;;;;19.59;61.07;100545.44;6236494;23;20058;-83
2022/06/10 10:37:29;;;;;;;7.10;2.92;;;;;;;19.74;60.84;100540.72;6236411;23;20004;-84
2022/06/10 10:40:02;;;;;;;13.50;2.88;;;;;;;19.81;60.79;100541.16;6237401;23;20015;-85
2022/06/10 10:42:33;;;;;;;15.43;3.00;;;;;;;19.57;61.27;100545.75;6237125;23;20087;-86
2022/06/10 10:45:23;;;;;;;10.18;2.40;;;;;;;19.47;61.71;100544.03;6236065;23;20011;-88
2022/06/10 10:47:56;;;;;;;8.93;3.28;;;;;;;19.61;61.41;100537.66;6236809;23;20019;-88
2022/06/10 10:50:30;;;;;;;9.20;3.08;;;;;;;19.55;61.62;100544.41;6237230;23;20193;-86
2022/06/10 10:52:56;;;;;;;8.75;4.00;;;;;;;19.64;61.31;100534.31;6237534;23;20035;-83
2022/06/10 10:55:34;;;;;;;7.13;3.17;;;;;;;19.68;61.46;100546.38;6236216;23;20015;-89
2022/06/10 10:58:07;;;;;;;6.47;2.65;;;;;;;19.67;61.27;100536.44;6237306;23;20020;-86
2022/06/10 11:00:59;;;;;;;7.78;3.00;;;;;;;19.84;60.60;100537.75;6237033;23;20608;-84
2022/06/10 11:03:32;;;;;;;7.63;2.85;;;;;;;19.97;60.31;100546.34;6236721;23;20023;-84
2022/06/10 11:06:03;;;;;;;7.82;3.05;;;;;;;20.09;60.11;100532.00;6210002;23;20012;-83
2022/06/10 11:08:38;;;;;;;10.23;3.42;;;;;;;20.21;60.98;100532.28;6236964;23;20349;-83
2022/06/10 11:11:12;;;;;;;8.18;4.05;;;;;;;20.27;59.91;100530.22;6236037;23;20087;-84
2022/06/10 11:13:40;;;;;;;7.28;4.10;;;;;;;20.45;60.09;100527.59;6237314;23;20008;-85
2022/06/10 11:16:23;;;;;;;9.25;4.45;;;;;;;20.54;59.31;100534.03;6235601;23;20175;-83
2022/06/10 11:18:51;;;;;;;12.13;4.07;;;;;;;20.56;59.58;100531.78;6237403;23;20036;-85
2022/06/10 11:21:16;;;;;;;8.23;4.32;;;;;;;20.44;58.63;100528.75;6236730;23;20038;-83
2022/06/10 11:23:56;;;;;;;9.25;4.13;;;;;;;20.42;58.79;100521.53;6236290;23;20342;-87
2022/06/10 11:26:24;;;;;;;6.10;3.95;;;;;;;20.59;58.41;100525.59;6226307;23;20012;-86
2022/06/10 11:29:00;;;;;;;9.30;3.20;;;;;;;20.61;58.69;100530.81;6237105;23;20430;-85
2022/06/10 11:31:40;;;;;;;7.15;3.13;;;;;;;20.54;58.84;100531.25;6236917;23;20677;-87
2022/06/10 11:34:17;;;;;;;6.32;2.72;;;;;;;20.63;57.84;100520.22;6236907;23;20105;-86
2022/06/10 11:36:49;;;;;;;6.20;2.92;;;;;;;20.73;57.53;100531.06;6236289;23;20012;-87
2022/06/10 11:39:17;;;;;;;8.07;3.53;;;;;;;20.76;57.59;100524.06;6236254;23;20445;-82
2022/06/10 11:42:16;;;;;;;8.50;3.05;;;;;;;20.89;58.47;100516.81;6236303;23;20142;-84
2022/06/10 11:45:00;;;;;;;13.70;3.45;;;;;;;20.96;58.48;100511.66;6236414;23;20012;-84
2022/06/10 11:47:30;;;;;;;5.85;2.00;;;;;;;21.05;57.98;100517.25;6236799;23;20000;-81
2022/06/10 11:50:06;;;;;;;6.72;3.05;;;;;;;21.08;57.38;100505.53;6236431;23;20026;-84
2022/06/10 11:52:37;;;;;;;9.77;3.15;;;;;;;20.98;57.75;100503.03;6236567;23;20305;-85